Terminal Aerodrome Forecast
Issued by NWS Charleston, WV

Current Version | Previous Version | Graphics & Text | Print | Product List | Glossary On
Versions: 1 2 3 4 5 6 7 8 9 10 11 12 13 14 15 16 17 18 19 20 21 22 23 24 25 26 27
000
FTUS41 KRLX 061128
TAFHTS
TAF
KHTS 061128Z 0612/0712 00000KT 2SM BR BKN010
     FM061300 00000KT 5SM BR BKN015
     FM061500 26004KT P6SM BKN020
     FM062000 25004KT P6SM BKN035
     FM070100 20003KT P6SM SCT035
     FM070400 00000KT 6SM BR SCT090
     FM070500 00000KT 5SM BR FEW200
     FM070900 00000KT 1SM BR SCT001=

USA.gov is the U.S. government's official web portal to all federal, state and local government web resources and services.